createdAt,value
2023-01-17T07:04:30.965Z,0.93
2023-01-17T07:06:57.290Z,1.05
2023-01-17T07:09:23.634Z,1.00
2023-01-17T07:11:51.078Z,1.10
2023-01-17T07:14:17.387Z,1.00
2023-01-17T07:16:45.291Z,1.00
2023-01-17T07:19:11.849Z,1.00
2023-01-17T07:21:38.195Z,1.10
2023-01-17T07:24:04.733Z,1.20
2023-01-17T07:26:31.185Z,1.10
2023-01-17T07:28:58.225Z,1.02
2023-01-17T07:31:24.528Z,1.08
2023-01-17T07:33:51.152Z,1.00
2023-01-17T07:36:17.875Z,1.00
2023-01-17T07:38:46.098Z,1.10
2023-01-17T07:41:12.530Z,1.20
2023-01-17T07:43:39.140Z,1.20
2023-01-17T07:46:07.363Z,1.00
2023-01-17T07:48:33.852Z,1.10
2023-01-17T07:51:00.194Z,1.13
2023-01-17T07:53:27.783Z,1.00
2023-01-17T07:55:54.108Z,1.30
2023-01-17T07:58:20.601Z,1.33
2023-01-17T08:00:47.592Z,1.10
2023-01-17T08:03:15.536Z,1.30
2023-01-17T08:05:44.446Z,1.50
2023-01-17T08:08:10.717Z,1.20
2023-01-17T08:10:37.149Z,1.05
2023-01-17T08:13:03.581Z,1.10
2023-01-17T08:15:32.313Z,1.25
2023-01-17T08:17:59.302Z,1.20
2023-01-17T08:20:27.926Z,1.05
2023-01-17T08:22:55.681Z,1.23
2023-01-17T08:25:23.259Z,1.00
2023-01-17T08:27:50.459Z,1.20
2023-01-17T08:30:19.851Z,1.20
2023-01-17T08:32:46.217Z,1.02
2023-01-17T08:35:13.489Z,1.02
2023-01-17T08:37:40.005Z,1.35
2023-01-17T08:40:06.963Z,1.42
2023-01-17T08:42:38.399Z,1.20
2023-01-17T08:45:06.466Z,1.10
2023-01-17T08:47:33.433Z,1.13
2023-01-17T08:50:00.192Z,1.10
2023-01-17T08:52:28.344Z,1.60
2023-01-17T08:54:54.643Z,1.67
2023-01-17T08:57:21.726Z,1.60
2023-01-17T08:59:48.258Z,1.40
2023-01-17T09:02:15.710Z,1.45
2023-01-17T09:04:46.125Z,1.25
2023-01-17T09:07:13.106Z,1.30
2023-01-17T09:09:39.697Z,1.30
2023-01-17T09:12:06.420Z,1.38
2023-01-17T09:14:33.039Z,1.20
2023-01-17T09:16:59.463Z,1.15
2023-01-17T09:19:44.932Z,1.40
2023-01-17T09:22:11.899Z,1.13
2023-01-17T09:24:38.334Z,1.35
2023-01-17T09:27:04.649Z,1.55
2023-01-17T09:29:30.951Z,2.00
2023-01-17T09:31:57.339Z,1.60
2023-01-17T09:34:25.880Z,1.67
2023-01-17T09:36:52.431Z,1.30
2023-01-17T09:39:37.551Z,1.25
2023-01-17T09:44:56.428Z,1.45
2023-01-17T09:50:03.757Z,1.60
2023-01-17T09:52:30.628Z,1.10
2023-01-17T09:54:57.143Z,1.23
2023-01-17T09:57:43.452Z,1.05
2023-01-17T10:00:20.746Z,1.50
2023-01-17T10:02:56.281Z,1.60
2023-01-17T10:08:08.281Z,1.30
2023-01-17T10:10:55.143Z,1.40
2023-01-17T10:13:27.579Z,1.40
2023-01-17T10:18:58.603Z,1.25
2023-01-17T10:26:41.209Z,1.50
2023-01-17T10:29:12.553Z,1.30
2023-01-17T10:31:41.972Z,1.13
2023-01-17T10:34:13.449Z,1.10
2023-01-17T10:36:41.794Z,1.50
2023-01-17T10:39:24.933Z,1.40
2023-01-17T10:42:10.110Z,1.38
2023-01-17T10:44:45.975Z,1.48
2023-01-17T10:47:18.231Z,1.50
2023-01-17T10:49:46.556Z,1.42
2023-01-17T10:52:19.019Z,1.45
2023-01-17T10:55:05.320Z,1.40
2023-01-17T10:57:38.172Z,1.42
2023-01-17T11:00:17.896Z,1.30
2023-01-17T11:03:34.388Z,1.25
2023-01-17T11:06:20.808Z,1.60
2023-01-17T11:08:52.149Z,1.30
2023-01-17T11:11:19.899Z,1.23
2023-01-17T11:13:48.391Z,1.40
2023-01-17T11:16:20.466Z,1.55
2023-01-17T11:18:48.363Z,1.38
2023-01-17T11:21:16.941Z,1.33
2023-01-17T11:23:46.294Z,1.38
2023-01-17T11:30:03.540Z,1.45
2023-01-17T11:32:31.670Z,1.47
2023-01-17T11:35:06.946Z,1.58
2023-01-17T11:37:36.187Z,1.48
2023-01-17T11:40:22.459Z,1.50
2023-01-17T11:43:00.522Z,1.50
2023-01-17T11:45:28.801Z,1.50
2023-01-17T11:48:15.390Z,1.58
2023-01-17T11:50:43.879Z,1.70
2023-01-17T11:53:16.380Z,1.80
2023-01-17T11:56:03.200Z,1.45
2023-01-17T11:58:32.416Z,1.52
2023-01-17T12:01:00.718Z,1.50
2023-01-17T12:03:39.986Z,1.67
2023-01-17T12:17:05.371Z,1.77
2023-01-17T12:19:38.029Z,1.80
2023-01-17T12:25:02.257Z,1.75
2023-01-17T12:27:48.483Z,2.28
2023-01-17T12:33:05.725Z,1.90
2023-01-17T12:35:37.805Z,2.08
2023-01-17T12:38:08.353Z,2.00
2023-01-17T12:40:36.748Z,2.30
2023-01-17T12:43:07.624Z,1.80
2023-01-17T12:45:38.513Z,1.98
2023-01-17T12:48:09.014Z,2.10
2023-01-17T12:50:40.275Z,2.10
2023-01-17T12:56:52.644Z,2.20
2023-01-17T12:59:25.831Z,2.05
2023-01-17T13:01:57.887Z,2.33
2023-01-17T13:04:27.935Z,2.42
2023-01-17T13:07:14.181Z,2.88
2023-01-17T13:09:45.038Z,2.33
2023-01-17T13:12:13.617Z,2.33
2023-01-17T13:14:39.887Z,2.55
2023-01-17T13:22:36.097Z,2.60
2023-01-17T13:30:47.559Z,2.72
2023-01-17T13:35:58.781Z,3.33
2023-01-17T13:38:53.912Z,3.10
2023-01-17T13:44:20.704Z,3.95
2023-01-17T13:47:04.091Z,3.85
2023-01-17T13:55:04.550Z,4.90
2023-01-17T13:57:33.836Z,5.03
2023-01-17T14:00:21.042Z,4.75
2023-01-17T14:02:48.371Z,4.50
2023-01-17T14:05:16.698Z,4.80
